createdAt,value
2018-04-10T00:00:35.931Z,56.67
2018-04-10T00:03:04.252Z,57.02
2018-04-10T00:05:32.580Z,57.10
2018-04-10T00:08:00.919Z,57.31
2018-04-10T00:10:29.248Z,57.73
2018-04-10T00:12:57.592Z,57.81
2018-04-10T00:15:25.915Z,58.13
2018-04-10T00:17:54.260Z,58.18
2018-04-10T00:20:22.586Z,58.25
2018-04-10T00:22:50.931Z,58.34
2018-04-10T00:25:19.256Z,58.51
2018-04-10T00:27:47.590Z,58.53
2018-04-10T00:30:15.911Z,58.55
2018-04-10T00:32:44.256Z,58.78
2018-04-10T00:35:12.589Z,58.90
2018-04-10T00:37:40.932Z,58.96
2018-04-10T00:40:09.256Z,59.18
2018-04-10T00:42:37.604Z,59.48
2018-04-10T00:45:05.923Z,59.45
2018-04-10T00:47:34.276Z,59.69
2018-04-10T00:50:02.605Z,59.84
2018-04-10T00:52:30.944Z,59.97
2018-04-10T00:54:59.271Z,59.94
2018-04-10T00:57:27.616Z,59.83
2018-04-10T00:59:55.940Z,59.49
2018-04-10T01:02:24.284Z,59.62
2018-04-10T01:04:52.607Z,59.78
2018-04-10T01:07:20.956Z,60.47
2018-04-10T01:09:49.277Z,60.84
2018-04-10T01:12:17.620Z,60.96
2018-04-10T01:14:45.948Z,61.10
2018-04-10T01:17:14.288Z,61.01
2018-04-10T01:19:42.639Z,60.88
2018-04-10T01:22:10.983Z,61.03
2018-04-10T01:24:39.307Z,60.97
2018-04-10T01:27:07.651Z,61.01
2018-04-10T01:29:35.999Z,61.11
2018-04-10T01:32:04.359Z,61.29
2018-04-10T01:34:32.681Z,61.39
2018-04-10T01:37:01.008Z,61.55
2018-04-10T01:39:29.352Z,61.28
2018-04-10T01:41:57.681Z,61.21
2018-04-10T01:44:26.028Z,61.23
2018-04-10T01:46:54.362Z,61.13
2018-04-10T01:49:22.707Z,61.00
2018-04-10T01:51:51.040Z,60.62
2018-04-10T01:54:19.392Z,60.44
2018-04-10T01:56:47.721Z,60.40
2018-04-10T01:59:16.063Z,60.07
2018-04-10T02:01:44.387Z,60.09
2018-04-10T02:04:12.728Z,59.83
2018-04-10T02:06:41.062Z,59.82
2018-04-10T02:09:09.409Z,60.23
2018-04-10T02:11:37.733Z,61.08
2018-04-10T02:14:06.080Z,61.65
2018-04-10T02:16:34.419Z,62.33
2018-04-10T02:19:02.769Z,62.93
2018-04-10T02:21:31.092Z,63.42
2018-04-10T02:23:59.448Z,63.79
2018-04-10T02:26:27.780Z,64.11
2018-04-10T02:28:56.128Z,64.47
2018-04-10T02:31:24.459Z,64.69
2018-04-10T02:33:52.822Z,64.77
2018-04-10T02:36:21.152Z,64.70
2018-04-10T02:38:49.505Z,64.30
2018-04-10T02:41:17.832Z,64.20
2018-04-10T02:43:46.180Z,63.97
2018-04-10T02:46:14.495Z,63.81
2018-04-10T02:48:42.840Z,63.45
2018-04-10T02:51:11.168Z,63.24
2018-04-10T02:53:39.512Z,63.20
2018-04-10T02:56:07.836Z,62.80
2018-04-10T02:58:36.193Z,62.84
2018-04-10T03:01:04.515Z,62.74
2018-04-10T03:03:32.860Z,62.71
2018-04-10T03:06:01.186Z,62.49
2018-04-10T03:08:29.537Z,62.34
2018-04-10T03:10:57.860Z,62.16
2018-04-10T03:13:26.212Z,62.06
2018-04-10T03:15:54.537Z,61.77
2018-04-10T03:18:22.862Z,61.91
2018-04-10T03:20:51.205Z,62.43
2018-04-10T03:23:19.529Z,63.17
2018-04-10T03:25:47.872Z,63.14
2018-04-10T03:28:16.209Z,63.18
2018-04-10T03:30:44.558Z,63.20
2018-04-10T03:33:12.888Z,62.93
2018-04-10T03:35:41.235Z,62.87
2018-04-10T03:38:09.560Z,62.92
2018-04-10T03:40:37.914Z,62.61
2018-04-10T03:43:06.236Z,62.56
2018-04-10T03:45:34.589Z,62.13
2018-04-10T03:48:02.911Z,62.44
2018-04-10T03:50:31.265Z,62.62
2018-04-10T03:52:59.592Z,62.44
2018-04-10T03:55:27.935Z,62.00
2018-04-10T03:57:56.260Z,62.09
2018-04-10T04:00:24.608Z,62.37
2018-04-10T04:02:52.941Z,62.33
2018-04-10T04:05:21.288Z,62.38
2018-04-10T04:07:49.611Z,62.56
2018-04-10T04:10:17.960Z,62.80
2018-04-10T04:12:46.280Z,63.00
2018-04-10T04:15:14.624Z,63.39
2018-04-10T04:17:42.953Z,63.29
2018-04-10T04:20:23.124Z,63.81
2018-04-10T04:22:51.459Z,64.06
2018-04-10T04:25:19.812Z,64.24
2018-04-10T04:27:48.142Z,64.29
2018-04-10T04:30:16.492Z,64.35
2018-04-10T04:32:44.816Z,64.16
2018-04-10T04:35:13.172Z,64.05
2018-04-10T04:37:41.496Z,64.65
2018-04-10T04:40:09.857Z,64.63
2018-04-10T04:42:38.172Z,63.96
2018-04-10T04:45:06.531Z,64.11
2018-04-10T04:47:34.865Z,64.13
2018-04-10T04:50:03.224Z,64.01
2018-04-10T04:52:31.540Z,63.87
2018-04-10T04:54:59.892Z,63.60
2018-04-10T04:57:28.211Z,63.60
2018-04-10T04:59:56.560Z,63.53
2018-04-10T05:02:24.900Z,63.32
2018-04-10T05:04:53.260Z,63.29
2018-04-10T05:07:21.583Z,63.31
2018-04-10T05:09:49.939Z,63.50
2018-04-10T05:12:18.264Z,63.68
2018-04-10T05:14:46.620Z,63.39
2018-04-10T05:17:14.947Z,63.49
2018-04-10T05:19:43.304Z,63.42
2018-04-10T05:22:11.636Z,63.04
2018-04-10T05:24:39.992Z,62.80
2018-04-10T05:27:08.329Z,62.58
2018-04-10T05:29:36.655Z,62.81
2018-04-10T05:32:05.012Z,62.68
2018-04-10T05:34:33.340Z,62.45
2018-04-10T05:37:01.692Z,62.32
2018-04-10T05:39:30.019Z,62.32
2018-04-10T05:41:58.373Z,62.40
2018-04-10T05:44:26.716Z,62.09
2018-04-10T05:46:55.069Z,61.89
2018-04-10T05:49:23.404Z,61.80
2018-04-10T05:51:51.765Z,62.23
2018-04-10T05:54:20.092Z,61.97
2018-04-10T05:56:48.452Z,63.00
2018-04-10T05:59:16.783Z,63.79
2018-04-10T06:01:45.137Z,63.40
2018-04-10T06:04:13.460Z,63.24
2018-04-10T06:06:41.806Z,63.67
2018-04-10T06:09:10.144Z,64.00
2018-04-10T06:11:38.500Z,64.00
2018-04-10T06:14:06.840Z,63.55
2018-04-10T06:16:35.184Z,62.96
2018-04-10T06:19:03.529Z,62.66
2018-04-10T06:21:31.884Z,62.83
2018-04-10T06:24:00.962Z,62.34
2018-04-10T06:26:29.309Z,62.53
2018-04-10T06:28:57.641Z,61.67
2018-04-10T06:31:25.997Z,60.57
2018-04-10T06:33:54.336Z,60.00
2018-04-10T06:36:23.684Z,59.86
2018-04-10T06:38:52.025Z,59.17
2018-04-10T06:41:20.367Z,58.11
2018-04-10T06:43:48.709Z,56.61
2018-04-10T06:46:17.066Z,56.56
2018-04-10T06:48:45.393Z,57.65
2018-04-10T06:51:13.744Z,57.74
2018-04-10T06:53:42.081Z,56.85
2018-04-10T06:56:10.432Z,57.63
2018-04-10T06:58:38.759Z,58.39
2018-04-10T07:01:07.116Z,57.44
2018-04-10T07:03:35.453Z,57.07
2018-04-10T07:06:03.814Z,56.03
2018-04-10T07:08:32.174Z,56.76
2018-04-10T07:11:00.624Z,56.93
2018-04-10T07:13:28.964Z,57.78
2018-04-10T07:15:57.308Z,57.46
2018-04-10T07:18:25.639Z,57.47
2018-04-10T07:20:54.147Z,58.42
2018-04-10T07:23:22.689Z,57.11
2018-04-10T07:25:51.003Z,57.20
2018-04-10T07:28:19.368Z,57.23
2018-04-10T07:30:47.708Z,56.77
2018-04-10T07:33:16.062Z,57.34
2018-04-10T07:35:44.393Z,57.50
2018-04-10T07:38:12.740Z,57.72
2018-04-10T07:40:41.071Z,57.94
2018-04-10T07:43:09.856Z,58.32
2018-04-10T07:45:38.189Z,56.85
2018-04-10T07:48:06.540Z,56.91
2018-04-10T07:50:34.864Z,57.15
2018-04-10T07:53:03.208Z,57.17
2018-04-10T07:55:31.541Z,56.73
2018-04-10T07:57:59.899Z,56.88
2018-04-10T08:00:28.235Z,56.70
2018-04-10T08:02:56.587Z,57.18
2018-04-10T08:05:24.922Z,57.06
2018-04-10T08:07:53.273Z,56.92
2018-04-10T08:10:21.596Z,57.06
2018-04-10T08:12:49.949Z,56.89
2018-04-10T08:15:18.283Z,56.83
2018-04-10T08:17:46.629Z,56.94
2018-04-10T08:20:14.959Z,57.43
2018-04-10T08:22:44.187Z,56.31
2018-04-10T08:25:12.524Z,56.24
2018-04-10T08:27:40.872Z,56.58
2018-04-10T08:30:09.206Z,56.96
2018-04-10T08:32:37.556Z,56.33
2018-04-10T08:35:05.888Z,56.05
2018-04-10T08:37:34.240Z,55.49
2018-04-10T08:40:02.563Z,55.71
2018-04-10T08:42:30.912Z,55.47
2018-04-10T08:44:59.251Z,55.24
2018-04-10T08:47:27.596Z,55.14
2018-04-10T08:49:55.928Z,54.91
2018-04-10T08:52:24.280Z,54.46
2018-04-10T08:54:52.604Z,54.32
2018-04-10T08:57:20.956Z,54.67
2018-04-10T08:59:49.288Z,54.15
2018-04-10T09:02:18.516Z,54.52
2018-04-10T09:04:46.844Z,54.18
2018-04-10T09:07:15.196Z,52.95
2018-04-10T09:09:43.532Z,53.37
2018-04-10T09:12:11.884Z,53.65
2018-04-10T09:14:40.222Z,53.87
2018-04-10T09:17:08.569Z,54.07
2018-04-10T09:19:36.898Z,53.22
2018-04-10T09:22:05.244Z,53.38
2018-04-10T09:24:33.576Z,53.15
2018-04-10T09:27:01.977Z,52.70
2018-04-10T09:29:30.296Z,51.65
2018-04-10T09:31:58.630Z,51.06
2018-04-10T09:34:26.985Z,50.97
2018-04-10T09:36:55.310Z,51.45
2018-04-10T09:39:23.664Z,50.44
2018-04-10T09:41:52.865Z,51.26
2018-04-10T09:44:21.224Z,51.06
2018-04-10T09:46:49.557Z,50.67
2018-04-10T09:49:17.912Z,49.46
2018-04-10T09:51:46.246Z,50.77
2018-04-10T09:54:14.601Z,50.57
2018-04-10T09:56:42.937Z,50.25
2018-04-10T09:59:11.289Z,50.55
2018-04-10T10:01:39.753Z,50.28
2018-04-10T10:04:08.944Z,50.25
2018-04-10T10:06:37.281Z,50.25
2018-04-10T10:09:06.440Z,49.26
2018-04-10T10:11:34.772Z,49.85
2018-04-10T10:14:03.133Z,49.38
2018-04-10T10:16:32.409Z,49.20
2018-04-10T10:19:00.765Z,49.05
2018-04-10T10:21:29.096Z,49.17
2018-04-10T10:23:57.460Z,49.80
2018-04-10T10:26:25.793Z,49.62
2018-04-10T10:28:54.152Z,49.40
2018-04-10T10:31:22.484Z,49.30
2018-04-10T10:33:50.836Z,48.95
2018-04-10T10:36:19.168Z,49.07
2018-04-10T10:38:47.538Z,49.29
2018-04-10T10:41:15.868Z,49.27
2018-04-10T10:43:44.225Z,50.31
2018-04-10T10:46:12.556Z,49.58
2018-04-10T10:48:40.965Z,49.25
2018-04-10T10:51:09.352Z,49.50
2018-04-10T10:53:37.702Z,48.92
2018-04-10T10:56:06.040Z,48.57
2018-04-10T10:58:34.396Z,48.29
2018-04-10T11:01:02.779Z,48.71
2018-04-10T11:03:31.094Z,49.01
2018-04-10T11:05:59.429Z,49.73
2018-04-10T11:08:27.788Z,48.31
2018-04-10T11:10:56.117Z,48.11
2018-04-10T11:13:24.472Z,48.00
2018-04-10T11:15:52.797Z,48.09
2018-04-10T11:18:21.156Z,47.78
2018-04-10T11:20:49.497Z,47.83
2018-04-10T11:23:17.857Z,47.83
2018-04-10T11:25:46.193Z,47.21
2018-04-10T11:28:14.548Z,47.10
2018-04-10T11:30:42.881Z,46.63
2018-04-10T11:33:11.214Z,46.40
2018-04-10T11:35:39.572Z,46.13
2018-04-10T11:38:07.901Z,44.98
2018-04-10T11:40:36.309Z,45.18
2018-04-10T11:43:04.641Z,45.88
2018-04-10T11:45:32.992Z,45.81
2018-04-10T11:48:01.330Z,45.81
2018-04-10T11:50:29.681Z,44.29
2018-04-10T11:52:58.017Z,44.54
2018-04-10T11:55:26.368Z,44.97
2018-04-10T11:57:54.700Z,44.19
2018-04-10T12:00:23.126Z,44.17
2018-04-10T12:02:51.453Z,44.11
2018-04-10T12:05:19.804Z,43.83
2018-04-10T12:07:48.141Z,44.29
2018-04-10T12:10:16.492Z,44.93
2018-04-10T12:12:44.824Z,44.74
2018-04-10T12:15:13.173Z,44.10
2018-04-10T12:17:41.504Z,44.88
2018-04-10T12:20:10.744Z,43.99
2018-04-10T12:22:39.071Z,43.86
2018-04-10T12:25:07.430Z,43.00
2018-04-10T12:27:35.758Z,43.04
2018-04-10T12:30:04.116Z,43.21
2018-04-10T12:32:32.452Z,43.50
2018-04-10T12:35:00.809Z,43.14
2018-04-10T12:37:29.136Z,43.57
2018-04-10T12:39:57.651Z,43.20
2018-04-10T12:42:25.965Z,43.15
2018-04-10T12:44:54.316Z,43.17
2018-04-10T12:47:22.652Z,43.44
2018-04-10T12:49:51.000Z,43.97
2018-04-10T12:52:19.330Z,44.46
2018-04-10T12:54:47.680Z,43.24
2018-04-10T12:57:16.008Z,42.89
2018-04-10T12:59:45.083Z,42.59
2018-04-10T13:02:13.474Z,43.08
2018-04-10T13:04:41.773Z,42.58
2018-04-10T13:07:10.113Z,42.39
2018-04-10T13:09:38.465Z,42.68
2018-04-10T13:12:06.787Z,42.55
2018-04-10T13:14:35.140Z,43.16
2018-04-10T13:17:03.469Z,41.71
2018-04-10T13:19:31.821Z,41.05
2018-04-10T13:22:00.152Z,41.63
2018-04-10T13:24:28.495Z,42.09
2018-04-10T13:26:56.944Z,41.91
2018-04-10T13:29:25.334Z,41.82
2018-04-10T13:31:53.670Z,41.05
2018-04-10T13:34:21.994Z,41.13
2018-04-10T13:36:50.345Z,41.18
2018-04-10T13:39:19.396Z,41.75
2018-04-10T13:41:47.756Z,41.84
2018-04-10T13:44:16.089Z,41.64
2018-04-10T13:46:44.439Z,41.90
2018-04-10T13:49:12.773Z,41.66
2018-04-10T13:51:41.120Z,42.00
2018-04-10T13:54:09.447Z,41.74
2018-04-10T13:56:37.805Z,40.73
2018-04-10T13:59:06.144Z,40.56
2018-04-10T14:01:34.538Z,41.32
2018-04-10T14:04:02.886Z,40.29
2018-04-10T14:06:31.240Z,41.06
2018-04-10T14:08:59.572Z,40.79
2018-04-10T14:11:28.048Z,41.02
2018-04-10T14:13:56.368Z,40.57
2018-04-10T14:16:24.717Z,40.63
2018-04-10T14:18:53.058Z,40.92
2018-04-10T14:21:21.500Z,40.44
2018-04-10T14:23:49.833Z,39.95
2018-04-10T14:26:18.408Z,40.75
2018-04-10T14:28:46.795Z,41.10
2018-04-10T14:31:15.178Z,40.43
2018-04-10T14:33:43.512Z,41.44
2018-04-10T14:36:11.897Z,41.42
2018-04-10T14:38:40.212Z,40.54
2018-04-10T14:41:08.569Z,40.78
2018-04-10T14:43:36.904Z,41.36
2018-04-10T14:46:05.251Z,40.70
2018-04-10T14:48:33.734Z,40.50
2018-04-10T14:51:02.072Z,41.13
2018-04-10T14:53:30.424Z,40.62
2018-04-10T14:55:58.752Z,40.81
2018-04-10T14:58:27.096Z,40.89
2018-04-10T15:00:55.436Z,40.31
2018-04-10T15:03:23.760Z,40.64
2018-04-10T15:05:52.123Z,40.21
2018-04-10T15:08:20.455Z,40.06
2018-04-10T15:10:48.949Z,40.29
2018-04-10T15:13:17.268Z,40.21
2018-04-10T15:15:45.924Z,40.40
2018-04-10T15:18:14.256Z,40.22
2018-04-10T15:20:42.796Z,40.30
2018-04-10T15:23:11.124Z,41.29
2018-04-10T15:25:39.471Z,41.59
2018-04-10T15:28:07.828Z,41.06
2018-04-10T15:30:36.185Z,40.81
2018-04-10T15:33:04.517Z,41.27
2018-04-10T15:35:33.663Z,41.36
2018-04-10T15:38:02.017Z,41.34
2018-04-10T15:40:30.372Z,40.74
2018-04-10T15:42:58.724Z,41.08
2018-04-10T15:45:27.057Z,41.37
2018-04-10T15:47:55.404Z,41.39
2018-04-10T15:50:23.779Z,42.08
2018-04-10T15:52:52.132Z,41.36
2018-04-10T15:55:21.376Z,41.32
2018-04-10T15:57:49.932Z,40.88
2018-04-10T16:00:18.269Z,40.44
2018-04-10T16:02:46.624Z,40.94
2018-04-10T16:05:14.952Z,41.24
2018-04-10T16:07:43.304Z,41.51
2018-04-10T16:10:11.633Z,42.07
2018-04-10T16:12:40.936Z,41.85
2018-04-10T16:15:09.261Z,41.34
2018-04-10T16:17:37.615Z,41.12
2018-04-10T16:20:05.944Z,41.20
2018-04-10T16:22:34.297Z,41.28
2018-04-10T16:25:02.629Z,40.95
2018-04-10T16:27:30.977Z,41.40
2018-04-10T16:29:59.308Z,42.16
2018-04-10T16:32:27.669Z,41.77
2018-04-10T16:34:55.999Z,42.59
2018-04-10T16:37:24.343Z,42.50
2018-04-10T16:39:52.674Z,42.82
2018-04-10T16:42:21.025Z,42.75
2018-04-10T16:44:49.356Z,41.75
2018-04-10T16:47:17.728Z,41.87
2018-04-10T16:49:46.040Z,41.39
2018-04-10T16:52:14.396Z,41.42
2018-04-10T16:54:43.656Z,41.58
2018-04-10T16:57:12.011Z,41.61
2018-04-10T16:59:40.340Z,41.80
2018-04-10T17:02:08.700Z,42.13
2018-04-10T17:04:37.032Z,42.28
2018-04-10T17:07:06.304Z,42.46
2018-04-10T17:09:34.636Z,42.56
2018-04-10T17:12:03.023Z,42.60
2018-04-10T17:14:31.348Z,42.99
2018-04-10T17:16:59.701Z,43.19
2018-04-10T17:19:28.036Z,43.33
2018-04-10T17:21:56.395Z,43.34
2018-04-10T17:24:24.723Z,43.50
2018-04-10T17:26:53.068Z,43.67
2018-04-10T17:29:21.400Z,43.52
2018-04-10T17:31:49.773Z,43.33
2018-04-10T17:34:19.125Z,43.36
2018-04-10T17:36:47.505Z,43.32
2018-04-10T17:39:15.828Z,43.24
2018-04-10T17:41:44.163Z,43.67
2018-04-10T17:44:12.513Z,43.74
2018-04-10T17:46:40.839Z,43.64
2018-04-10T17:49:09.195Z,43.28
2018-04-10T17:51:37.529Z,43.45
2018-04-10T17:54:06.781Z,43.36
2018-04-10T17:56:36.075Z,43.27
2018-04-10T17:59:04.429Z,43.59
2018-04-10T18:01:32.763Z,43.87
2018-04-10T18:04:01.120Z,43.68
2018-04-10T18:06:30.413Z,44.03
2018-04-10T18:08:58.761Z,44.87
2018-04-10T18:11:27.087Z,45.75
2018-04-10T18:13:55.444Z,46.24
2018-04-10T18:16:24.736Z,46.62
2018-04-10T18:18:53.128Z,47.06
2018-04-10T18:21:21.460Z,47.59
2018-04-10T18:23:49.819Z,48.03
2018-04-10T18:26:18.416Z,48.45
2018-04-10T18:28:46.744Z,48.90
2018-04-10T18:31:15.071Z,49.02
2018-04-10T18:33:43.425Z,49.29
2018-04-10T18:36:11.774Z,49.28
2018-04-10T18:38:40.121Z,49.30
2018-04-10T18:41:08.444Z,49.57
2018-04-10T18:43:36.803Z,49.66
2018-04-10T18:46:05.124Z,49.83
2018-04-10T18:48:33.473Z,49.92
2018-04-10T18:51:01.809Z,49.95
2018-04-10T18:53:30.152Z,50.14
2018-04-10T18:55:58.481Z,50.47
2018-04-10T18:58:26.835Z,50.79
2018-04-10T19:00:55.164Z,50.74
2018-04-10T19:03:23.538Z,50.68
2018-04-10T19:05:51.869Z,50.81
2018-04-10T19:08:20.220Z,51.03
2018-04-10T19:10:48.552Z,51.14
2018-04-10T19:13:17.316Z,51.22
2018-04-10T19:15:45.647Z,51.11
2018-04-10T19:18:14.005Z,51.30
2018-04-10T19:20:42.328Z,51.49
2018-04-10T19:23:10.724Z,51.21
2018-04-10T19:25:39.178Z,51.18
2018-04-10T19:28:07.492Z,51.29
2018-04-10T19:30:35.844Z,51.39
2018-04-10T19:33:04.171Z,51.64
2018-04-10T19:35:32.529Z,51.95
2018-04-10T19:38:00.868Z,52.04
2018-04-10T19:40:29.219Z,52.18
2018-04-10T19:42:57.543Z,52.41
2018-04-10T19:45:26.158Z,52.74
2018-04-10T19:47:54.491Z,52.89
2018-04-10T19:50:22.884Z,53.23
2018-04-10T19:52:51.562Z,53.28
2018-04-10T19:55:19.901Z,53.37
2018-04-10T19:57:48.234Z,53.65
2018-04-10T20:00:16.598Z,53.93
2018-04-10T20:02:44.923Z,53.87
2018-04-10T20:05:13.276Z,53.76
2018-04-10T20:07:41.603Z,53.61
2018-04-10T20:10:09.952Z,53.88
2018-04-10T20:12:38.276Z,54.18
2018-04-10T20:15:06.627Z,54.56
2018-04-10T20:17:34.961Z,54.87
2018-04-10T20:20:03.307Z,55.03
2018-04-10T20:22:31.636Z,55.00
2018-04-10T20:24:59.984Z,55.23
2018-04-10T20:27:28.309Z,55.49
2018-04-10T20:29:56.662Z,55.62
2018-04-10T20:32:24.988Z,55.90
2018-04-10T20:34:53.332Z,55.99
2018-04-10T20:37:21.660Z,55.97
2018-04-10T20:39:50.016Z,56.04
2018-04-10T20:42:18.336Z,56.25
2018-04-10T20:44:46.691Z,56.44
2018-04-10T20:47:15.111Z,56.89
2018-04-10T20:49:43.448Z,57.06
2018-04-10T20:52:11.771Z,57.45
2018-04-10T20:54:40.168Z,57.72
2018-04-10T20:57:08.496Z,57.98
2018-04-10T20:59:36.818Z,58.47
2018-04-10T21:02:05.165Z,58.55
2018-04-10T21:04:33.488Z,58.78
2018-04-10T21:07:01.835Z,58.64
2018-04-10T21:09:30.160Z,58.64
2018-04-10T21:11:58.578Z,58.78
2018-04-10T21:14:26.893Z,58.53
2018-04-10T21:16:55.239Z,58.79
2018-04-10T21:19:23.564Z,58.79
2018-04-10T21:21:51.907Z,58.95
2018-04-10T21:24:20.231Z,59.25
2018-04-10T21:26:48.575Z,59.27
2018-04-10T21:29:16.900Z,59.32
2018-04-10T21:31:45.287Z,59.53
2018-04-10T21:34:13.600Z,60.04
2018-04-10T21:36:41.944Z,60.30
2018-04-10T21:39:10.270Z,60.47
2018-04-10T21:41:38.619Z,60.64
2018-04-10T21:44:06.944Z,60.99
2018-04-10T21:46:35.296Z,61.14
2018-04-10T21:49:03.635Z,61.33
2018-04-10T21:51:31.988Z,61.43
2018-04-10T21:54:00.364Z,61.33
2018-04-10T21:56:28.716Z,61.63
2018-04-10T21:58:57.048Z,61.59
2018-04-10T22:01:25.404Z,62.03
2018-04-10T22:03:53.737Z,62.28
2018-04-10T22:06:22.100Z,62.44
2018-04-10T22:08:50.468Z,62.78
2018-04-10T22:11:18.789Z,62.92
2018-04-10T22:13:47.120Z,63.00
2018-04-10T22:16:15.471Z,63.00
2018-04-10T22:18:43.805Z,62.86
2018-04-10T22:21:12.152Z,63.07
2018-04-10T22:23:40.492Z,63.14
2018-04-10T22:26:08.860Z,63.24
2018-04-10T22:28:37.209Z,63.40
2018-04-10T22:31:05.560Z,63.67
2018-04-10T22:33:33.872Z,63.99
2018-04-10T22:36:02.228Z,64.31
2018-04-10T22:38:30.569Z,64.47
2018-04-10T22:40:58.998Z,64.55
2018-04-10T22:43:27.320Z,64.57
2018-04-10T22:45:55.720Z,64.69
2018-04-10T22:48:24.025Z,64.50
2018-04-10T22:50:52.388Z,64.33
2018-04-10T22:53:20.755Z,64.54
2018-04-10T22:55:49.113Z,64.66
2018-04-10T22:58:17.460Z,64.86
2018-04-10T23:00:52.470Z,65.22
2018-04-10T23:03:20.806Z,65.25
2018-04-10T23:05:49.157Z,65.17
2018-04-10T23:08:17.523Z,65.28
2018-04-10T23:10:45.873Z,65.31
2018-04-10T23:13:14.237Z,65.37
2018-04-10T23:15:42.576Z,65.52
2018-04-10T23:18:10.940Z,65.64
2018-04-10T23:20:39.286Z,65.74
2018-04-10T23:23:07.644Z,65.81
2018-04-10T23:25:35.993Z,66.17
2018-04-10T23:28:04.353Z,66.34
2018-04-10T23:30:32.700Z,66.75
2018-04-10T23:33:01.064Z,66.87
2018-04-10T23:35:29.414Z,67.11
2018-04-10T23:37:57.774Z,67.12
2018-04-10T23:40:26.115Z,67.32
2018-04-10T23:42:54.472Z,67.35
2018-04-10T23:45:22.813Z,67.39
2018-04-10T23:47:51.177Z,67.38
2018-04-10T23:50:19.519Z,67.32
2018-04-10T23:52:47.873Z,67.38
2018-04-10T23:55:16.208Z,67.51
2018-04-10T23:57:44.570Z,67.62
